createdAt,value
2019-03-23T00:01:00.611Z,5.80
2019-03-23T00:04:05.522Z,5.70
2019-03-23T00:07:10.507Z,5.60
2019-03-23T00:10:15.404Z,5.50
2019-03-23T00:13:20.378Z,5.50
2019-03-23T00:16:25.310Z,5.50
2019-03-23T00:19:30.217Z,5.40
2019-03-23T00:22:35.046Z,5.30
2019-03-23T00:25:39.955Z,5.30
2019-03-23T00:28:44.765Z,5.20
2019-03-23T00:31:49.885Z,5.20
2019-03-23T00:34:54.723Z,5.10
2019-03-23T00:37:59.575Z,5.10
2019-03-23T00:41:04.469Z,5.00
2019-03-23T00:44:10.814Z,4.90
2019-03-23T00:47:15.705Z,4.90
2019-03-23T00:50:20.654Z,4.80
2019-03-23T00:53:25.555Z,4.80
2019-03-23T00:56:30.491Z,4.80
2019-03-23T00:59:35.455Z,4.70
2019-03-23T01:02:41.913Z,4.70
2019-03-23T01:05:47.063Z,4.60
2019-03-23T01:08:52.061Z,4.60
2019-03-23T01:11:56.999Z,4.50
2019-03-23T01:15:02.056Z,4.50
2019-03-23T01:18:06.931Z,4.50
2019-03-23T01:21:11.825Z,4.40
2019-03-23T01:24:16.716Z,4.40
2019-03-23T01:27:21.654Z,4.30
2019-03-23T01:30:26.533Z,4.30
2019-03-23T01:33:32.678Z,4.30
2019-03-23T01:36:37.578Z,4.20
2019-03-23T01:39:42.531Z,4.20
2019-03-23T01:42:47.409Z,4.20
2019-03-23T01:45:52.343Z,4.20
2019-03-23T01:48:57.246Z,4.20
2019-03-23T01:52:02.210Z,4.10
2019-03-23T01:55:08.867Z,4.00
2019-03-23T01:58:13.779Z,4.00
2019-03-23T02:01:18.610Z,4.00
2019-03-23T02:04:24.053Z,3.90
2019-03-23T02:07:28.953Z,3.90
2019-03-23T02:10:33.872Z,3.90
2019-03-23T02:13:38.672Z,3.80
2019-03-23T02:16:43.624Z,3.80
2019-03-23T02:19:48.462Z,3.80
2019-03-23T02:22:53.385Z,3.70
2019-03-23T02:25:58.270Z,3.70
2019-03-23T02:29:03.187Z,3.70
2019-03-23T02:32:08.077Z,3.60
2019-03-23T02:35:13.018Z,3.60
2019-03-23T02:38:17.879Z,3.60
2019-03-23T02:41:22.808Z,3.60
2019-03-23T02:44:27.712Z,3.60
2019-03-23T02:47:32.656Z,3.60
2019-03-23T02:50:37.548Z,3.50
2019-03-23T02:53:42.489Z,3.50
2019-03-23T02:56:47.379Z,3.40
2019-03-23T02:59:52.276Z,3.40
2019-03-23T03:02:57.094Z,3.40
2019-03-23T03:06:02.049Z,3.40
2019-03-23T03:09:07.663Z,3.40
2019-03-23T03:12:12.565Z,3.30
2019-03-23T03:15:36.235Z,3.30
2019-03-23T03:18:41.213Z,3.20
2019-03-23T03:21:46.140Z,3.20
2019-03-23T03:24:51.043Z,3.20
2019-03-23T03:27:55.964Z,3.20
2019-03-23T03:31:00.945Z,3.20
2019-03-23T03:34:05.812Z,3.30
2019-03-23T03:37:10.757Z,3.20
2019-03-23T03:40:15.751Z,3.20
2019-03-23T03:43:20.716Z,3.20
2019-03-23T03:46:25.555Z,3.30
2019-03-23T03:49:30.514Z,3.30
2019-03-23T03:52:35.415Z,3.30
2019-03-23T03:55:40.336Z,3.30
2019-03-23T03:58:45.224Z,3.40
2019-03-23T04:01:50.129Z,3.40
2019-03-23T04:04:54.952Z,3.50
2019-03-23T04:08:10.460Z,3.50
2019-03-23T04:11:06.712Z,3.60
2019-03-23T04:14:11.623Z,3.60
2019-03-23T04:17:16.519Z,3.60
2019-03-23T04:20:21.452Z,3.70
2019-03-23T04:23:26.340Z,3.70
2019-03-23T04:26:31.263Z,3.70
2019-03-23T04:29:36.134Z,3.80
2019-03-23T04:32:41.048Z,3.80
2019-03-23T04:35:45.966Z,3.90
2019-03-23T04:38:50.907Z,3.90
2019-03-23T04:41:55.791Z,4.00
2019-03-23T04:45:00.727Z,4.00
2019-03-23T04:48:05.615Z,4.10
2019-03-23T04:51:10.595Z,4.10
2019-03-23T04:54:15.469Z,4.20
2019-03-23T04:57:20.363Z,4.20
2019-03-23T05:00:25.260Z,4.20
2019-03-23T05:03:30.187Z,4.30
2019-03-23T05:06:35.071Z,4.30
2019-03-23T05:09:39.899Z,4.40
2019-03-23T05:12:44.788Z,4.40
2019-03-23T05:15:49.703Z,4.50
2019-03-23T05:18:54.512Z,4.50
2019-03-23T05:21:59.460Z,4.60
2019-03-23T05:25:04.558Z,4.60
2019-03-23T05:28:09.456Z,4.70
2019-03-23T05:31:14.352Z,4.70
2019-03-23T05:34:19.260Z,4.80
2019-03-23T05:37:24.164Z,4.80
2019-03-23T05:40:28.999Z,4.90
2019-03-23T05:43:33.831Z,5.00
2019-03-23T05:46:38.684Z,5.00
2019-03-23T05:49:43.539Z,5.10
2019-03-23T05:52:48.485Z,5.10
2019-03-23T05:55:53.294Z,5.20
2019-03-23T05:58:58.211Z,5.20
2019-03-23T06:02:03.089Z,5.30
2019-03-23T06:05:08.243Z,5.30
2019-03-23T06:08:13.119Z,5.40
2019-03-23T06:11:18.148Z,5.40
2019-03-23T06:14:23.804Z,5.50
2019-03-23T06:17:28.725Z,5.50
2019-03-23T06:20:33.605Z,5.60
2019-03-23T06:23:38.570Z,5.60
2019-03-23T06:26:43.465Z,5.60
2019-03-23T06:29:48.376Z,5.70
2019-03-23T06:32:53.258Z,5.70
2019-03-23T06:35:58.180Z,5.80
2019-03-23T06:39:05.703Z,5.80
2019-03-23T06:42:09.854Z,5.90
2019-03-23T06:45:14.858Z,5.90
2019-03-23T06:48:19.798Z,6.00
2019-03-23T06:51:24.683Z,6.00
2019-03-23T06:54:29.634Z,6.00
2019-03-23T06:57:34.538Z,6.10
2019-03-23T07:00:39.491Z,6.10
2019-03-23T07:03:44.393Z,6.20
2019-03-23T07:06:49.172Z,6.20
2019-03-23T07:09:54.040Z,6.30
2019-03-23T07:12:59.331Z,6.30
2019-03-23T07:16:04.160Z,6.30
2019-03-23T07:19:09.089Z,6.40
2019-03-23T07:22:13.971Z,6.40
2019-03-23T07:25:18.935Z,6.50
2019-03-23T07:28:23.840Z,6.50
2019-03-23T07:31:28.747Z,6.60
2019-03-23T07:34:33.646Z,6.70
2019-03-23T07:37:38.578Z,6.70
2019-03-23T07:40:43.750Z,6.80
2019-03-23T07:43:48.859Z,6.80
2019-03-23T07:46:53.761Z,6.90
2019-03-23T07:49:58.807Z,6.90
2019-03-23T07:53:03.716Z,7.00
2019-03-23T07:56:08.694Z,7.10
2019-03-23T07:59:13.633Z,7.10
2019-03-23T08:02:19.526Z,7.20
2019-03-23T08:05:24.469Z,7.20
2019-03-23T08:08:29.391Z,7.30
2019-03-23T08:11:34.269Z,7.40
2019-03-23T08:14:39.304Z,7.50
2019-03-23T08:17:44.319Z,7.50
2019-03-23T08:20:49.265Z,7.60
2019-03-23T08:23:54.158Z,7.70
2019-03-23T08:26:59.123Z,7.80
2019-03-23T08:30:04.378Z,7.90
2019-03-23T08:33:09.312Z,8.00
2019-03-23T08:36:14.206Z,8.00
2019-03-23T08:39:19.156Z,8.10
2019-03-23T08:42:24.030Z,8.20
2019-03-23T08:45:28.941Z,8.30
2019-03-23T08:48:33.834Z,8.40
2019-03-23T08:51:38.771Z,8.50
2019-03-23T08:54:43.643Z,8.60
2019-03-23T08:57:48.606Z,8.60
2019-03-23T09:00:53.498Z,8.70
2019-03-23T09:03:58.410Z,8.70
2019-03-23T09:07:03.319Z,8.80
2019-03-23T09:10:08.730Z,8.80
2019-03-23T09:13:13.654Z,8.90
2019-03-23T09:16:18.586Z,9.00
2019-03-23T09:19:23.483Z,9.00
2019-03-23T09:22:28.427Z,9.10
2019-03-23T09:25:33.358Z,9.20
2019-03-23T09:28:38.320Z,9.40
2019-03-23T09:31:45.153Z,9.40
2019-03-23T09:34:50.004Z,9.50
2019-03-23T09:37:54.812Z,9.70
2019-03-23T09:40:59.736Z,9.80
2019-03-23T09:44:04.640Z,9.90
2019-03-23T09:47:09.492Z,10.00
2019-03-23T09:50:14.464Z,10.10
2019-03-23T09:53:19.409Z,10.20
2019-03-23T09:56:24.291Z,10.40
2019-03-23T09:59:29.308Z,10.50
2019-03-23T10:02:34.219Z,10.70
2019-03-23T10:05:39.157Z,10.80
2019-03-23T10:08:46.346Z,11.00
2019-03-23T10:11:50.761Z,11.10
2019-03-23T10:14:55.698Z,11.20
2019-03-23T10:18:01.681Z,11.40
2019-03-23T10:21:06.841Z,11.50
2019-03-23T10:24:11.757Z,11.70
2019-03-23T10:27:16.580Z,11.90
2019-03-23T10:30:21.548Z,12.00
2019-03-23T10:33:26.374Z,12.20
2019-03-23T10:36:31.216Z,12.30
2019-03-23T10:39:36.142Z,12.50
2019-03-23T10:42:43.240Z,12.70
2019-03-23T10:45:47.615Z,12.90
2019-03-23T10:48:52.546Z,13.10
2019-03-23T10:51:57.446Z,13.30
2019-03-23T10:55:02.390Z,13.50
2019-03-23T10:58:07.276Z,13.70
2019-03-23T11:01:12.239Z,13.90
2019-03-23T11:04:17.070Z,14.00
2019-03-23T11:07:21.980Z,14.20
2019-03-23T11:10:26.863Z,14.40
2019-03-23T11:13:31.903Z,14.60
2019-03-23T11:16:36.829Z,14.70
2019-03-23T11:19:41.746Z,14.90
2019-03-23T11:22:46.632Z,15.10
2019-03-23T11:25:51.579Z,15.30
2019-03-23T11:28:56.477Z,15.40
2019-03-23T11:32:01.447Z,15.60
2019-03-23T11:35:08.117Z,15.80
2019-03-23T11:38:13.143Z,15.90
2019-03-23T11:41:18.060Z,16.10
2019-03-23T11:44:23.041Z,16.20
2019-03-23T11:47:27.950Z,16.40
2019-03-23T11:50:32.884Z,16.60
2019-03-23T11:53:37.738Z,17.30
2019-03-23T11:56:42.705Z,17.80
2019-03-23T11:59:47.598Z,18.10
2019-03-23T12:02:52.537Z,18.60
2019-03-23T12:05:57.486Z,19.10
2019-03-23T12:09:02.439Z,19.30
2019-03-23T12:12:07.393Z,19.40
2019-03-23T12:15:12.736Z,19.60
2019-03-23T12:18:17.626Z,19.60
2019-03-23T12:21:22.548Z,19.80
2019-03-23T12:24:27.440Z,20.10
2019-03-23T12:27:32.366Z,20.30
2019-03-23T12:30:37.265Z,20.60
2019-03-23T12:33:42.255Z,20.80
2019-03-23T12:36:47.148Z,20.30
2019-03-23T12:39:52.111Z,20.60
2019-03-23T12:42:57.044Z,20.80
2019-03-23T12:46:01.980Z,21.10
2019-03-23T12:49:06.998Z,21.20
2019-03-23T12:52:12.062Z,20.80
2019-03-23T12:55:16.986Z,21.00
2019-03-23T12:58:22.896Z,21.30
2019-03-23T13:01:29.059Z,21.50
2019-03-23T13:04:34.085Z,21.70
2019-03-23T13:07:39.012Z,21.90
2019-03-23T13:10:43.926Z,21.90
2019-03-23T13:13:48.855Z,22.10
2019-03-23T13:16:53.776Z,22.10
2019-03-23T13:19:58.728Z,22.30
2019-03-23T13:23:04.760Z,22.10
2019-03-23T13:26:09.747Z,22.30
2019-03-23T13:29:14.719Z,22.60
2019-03-23T13:32:19.639Z,22.60
2019-03-23T13:35:24.660Z,22.80
2019-03-23T13:38:29.571Z,23.00
2019-03-23T13:41:34.532Z,23.00
2019-03-23T13:44:39.440Z,23.10
2019-03-23T13:47:44.377Z,23.20
2019-03-23T13:50:49.251Z,23.30
2019-03-23T13:53:54.119Z,23.20
2019-03-23T13:56:59.095Z,23.30
2019-03-23T14:00:04.805Z,23.40
2019-03-23T14:03:09.746Z,23.40
2019-03-23T14:06:14.704Z,23.40
2019-03-23T14:09:19.570Z,23.10
2019-03-23T14:12:24.493Z,23.20
2019-03-23T14:15:29.410Z,23.20
2019-03-23T14:18:35.844Z,23.30
2019-03-23T14:21:40.853Z,23.40
2019-03-23T14:24:45.777Z,23.00
2019-03-23T14:27:50.906Z,23.10
2019-03-23T14:30:55.853Z,23.10
2019-03-23T14:34:00.790Z,23.00
2019-03-23T14:37:06.131Z,22.80
2019-03-23T14:40:11.327Z,22.80
2019-03-23T14:43:16.252Z,22.80
2019-03-23T14:46:21.136Z,22.80
2019-03-23T14:49:25.964Z,22.70
2019-03-23T14:52:30.777Z,22.40
2019-03-23T14:55:37.493Z,22.30
2019-03-23T14:59:00.864Z,22.20
2019-03-23T15:02:05.818Z,22.30
2019-03-23T15:05:10.712Z,22.00
2019-03-23T15:08:15.672Z,21.60
2019-03-23T15:11:27.871Z,21.60
2019-03-23T15:14:32.716Z,21.60
2019-03-23T15:17:37.551Z,21.60
2019-03-23T15:20:42.478Z,21.30
2019-03-23T15:23:47.406Z,21.00
2019-03-23T15:26:52.347Z,21.00
2019-03-23T15:29:57.147Z,20.60
2019-03-23T15:33:02.016Z,20.30
2019-03-23T15:36:06.925Z,20.10
2019-03-23T15:39:11.845Z,20.00
2019-03-23T15:42:24.442Z,19.70
2019-03-23T15:45:23.314Z,19.60
2019-03-23T15:48:28.749Z,19.70
2019-03-23T15:51:33.847Z,19.50
2019-03-23T15:54:38.664Z,19.40
2019-03-23T15:57:43.542Z,19.20
2019-03-23T16:00:48.507Z,19.10
2019-03-23T16:03:53.449Z,19.00
2019-03-23T16:06:58.387Z,18.80
2019-03-23T16:10:03.393Z,18.60
2019-03-23T16:13:08.290Z,18.50
2019-03-23T16:16:13.230Z,18.30
2019-03-23T16:19:18.131Z,18.10
2019-03-23T16:22:23.075Z,17.90
2019-03-23T16:25:27.956Z,17.80
2019-03-23T16:28:32.816Z,17.60
2019-03-23T16:31:37.732Z,17.20
2019-03-23T16:34:42.695Z,16.90
2019-03-23T16:37:47.726Z,16.80
2019-03-23T16:40:52.763Z,16.50
2019-03-23T16:43:57.700Z,16.30
2019-03-23T16:47:02.620Z,16.10
2019-03-23T16:50:09.878Z,15.80
2019-03-23T16:53:14.812Z,15.70
2019-03-23T16:56:19.793Z,15.40
2019-03-23T16:59:24.674Z,15.20
2019-03-23T17:02:29.602Z,15.00
2019-03-23T17:05:38.109Z,14.70
2019-03-23T17:08:43.024Z,14.60
2019-03-23T17:11:48.019Z,14.40
2019-03-23T17:14:52.954Z,14.10
2019-03-23T17:17:57.955Z,13.90
2019-03-23T17:21:03.908Z,13.80
2019-03-23T17:24:08.910Z,13.60
2019-03-23T17:27:13.854Z,13.40
2019-03-23T17:30:18.790Z,13.30
2019-03-23T17:33:24.771Z,13.20
2019-03-23T17:36:29.746Z,13.10
2019-03-23T17:39:34.643Z,13.00
2019-03-23T17:42:39.590Z,12.60
2019-03-23T17:45:44.623Z,12.40
2019-03-23T17:48:49.554Z,12.40
2019-03-23T17:51:55.521Z,12.20
2019-03-23T17:55:00.649Z,11.90
2019-03-23T17:58:05.558Z,12.00
2019-03-23T18:01:19.338Z,12.10
2019-03-23T18:04:18.506Z,12.10
2019-03-23T18:07:23.461Z,12.10
2019-03-23T18:10:28.391Z,12.10
2019-03-23T18:13:33.355Z,12.00
2019-03-23T18:16:38.325Z,11.90
2019-03-23T18:19:43.245Z,11.90
2019-03-23T18:22:48.150Z,11.80
2019-03-23T18:25:53.069Z,11.80
2019-03-23T18:28:58.014Z,11.70
2019-03-23T18:32:03.016Z,11.60
2019-03-23T18:35:08.182Z,11.50
2019-03-23T18:38:13.172Z,11.40
2019-03-23T18:41:18.077Z,11.30
2019-03-23T18:44:23.064Z,11.30
2019-03-23T18:47:27.961Z,11.20
2019-03-23T18:50:33.001Z,11.10
2019-03-23T18:53:37.913Z,11.00
2019-03-23T18:56:42.885Z,11.00
2019-03-23T18:59:47.799Z,10.90
2019-03-23T19:02:52.753Z,10.80
2019-03-23T19:05:57.679Z,10.80
2019-03-23T19:09:02.760Z,10.70
2019-03-23T19:12:07.712Z,10.60
2019-03-23T19:15:12.812Z,10.50
2019-03-23T19:18:17.833Z,10.50
2019-03-23T19:21:22.775Z,10.40
2019-03-23T19:24:28.193Z,10.30
2019-03-23T19:27:33.301Z,10.30
2019-03-23T19:30:38.212Z,10.20
2019-03-23T19:33:43.163Z,10.10
2019-03-23T19:36:48.091Z,10.00
2019-03-23T19:39:53.059Z,10.00
2019-03-23T19:42:59.665Z,9.90
2019-03-23T19:46:04.716Z,9.80
2019-03-23T19:49:09.628Z,9.80
2019-03-23T19:52:14.658Z,9.70
2019-03-23T19:55:19.714Z,9.70
2019-03-23T19:58:24.671Z,9.60
2019-03-23T20:01:29.607Z,9.50
2019-03-23T20:04:34.560Z,9.50
2019-03-23T20:07:39.428Z,9.40
2019-03-23T20:10:44.367Z,9.40
2019-03-23T20:13:58.393Z,9.30
2019-03-23T20:16:56.387Z,9.20
2019-03-23T20:20:01.451Z,9.10
2019-03-23T20:23:06.396Z,9.10
2019-03-23T20:26:11.569Z,9.10
2019-03-23T20:29:16.961Z,9.10
2019-03-23T20:32:21.899Z,9.00
2019-03-23T20:35:27.616Z,9.00
2019-03-23T20:38:35.984Z,8.90
2019-03-23T20:41:40.947Z,8.80
2019-03-23T20:44:45.864Z,8.80
2019-03-23T20:47:50.980Z,8.70
2019-03-23T20:50:55.879Z,8.70
2019-03-23T20:54:01.117Z,8.60
2019-03-23T20:57:06.019Z,8.60
2019-03-23T21:00:10.932Z,8.50
2019-03-23T21:03:15.871Z,8.50
2019-03-23T21:06:20.831Z,8.50
2019-03-23T21:09:25.755Z,8.40
2019-03-23T21:12:30.702Z,8.40
2019-03-23T21:15:35.615Z,8.30
2019-03-23T21:18:40.546Z,8.30
2019-03-23T21:21:45.516Z,8.20
2019-03-23T21:24:50.448Z,8.20
2019-03-23T21:27:55.728Z,8.10
2019-03-23T21:31:00.797Z,8.10
2019-03-23T21:34:06.202Z,8.00
2019-03-23T21:37:11.156Z,8.10
2019-03-23T21:40:16.190Z,8.00
2019-03-23T21:43:21.157Z,8.00
2019-03-23T21:46:26.228Z,8.00
2019-03-23T21:49:31.240Z,7.90
2019-03-23T21:52:36.333Z,7.80
2019-03-23T21:55:41.446Z,7.80
2019-03-23T21:58:46.408Z,7.80
2019-03-23T22:01:51.460Z,7.80
2019-03-23T22:04:56.364Z,7.70
2019-03-23T22:08:01.480Z,7.70
2019-03-23T22:11:08.384Z,7.60
2019-03-23T22:14:15.232Z,7.60
2019-03-23T22:17:20.128Z,7.60
2019-03-23T22:20:25.098Z,7.50
2019-03-23T22:23:30.088Z,7.50
2019-03-23T22:26:35.002Z,7.50
2019-03-23T22:29:40.804Z,7.50
2019-03-23T22:32:45.661Z,7.50
2019-03-23T22:35:52.403Z,7.50
2019-03-23T22:38:57.269Z,7.40
2019-03-23T22:42:02.198Z,7.40
2019-03-23T22:45:07.516Z,7.30
2019-03-23T22:48:12.691Z,7.30
2019-03-23T22:51:17.624Z,7.30
2019-03-23T22:54:22.560Z,7.30
2019-03-23T22:57:27.501Z,7.20
2019-03-23T23:00:41.723Z,7.20
2019-03-23T23:03:46.669Z,7.20
2019-03-23T23:06:51.573Z,7.20
2019-03-23T23:09:56.439Z,7.20
2019-03-23T23:13:01.680Z,7.10
2019-03-23T23:16:06.529Z,7.10
2019-03-23T23:19:11.530Z,7.10
2019-03-23T23:22:16.487Z,7.10
2019-03-23T23:25:21.447Z,7.10
2019-03-23T23:28:27.865Z,7.10
2019-03-23T23:31:32.812Z,7.20
2019-03-23T23:34:37.735Z,7.30
2019-03-23T23:37:43.319Z,7.30
2019-03-23T23:40:48.361Z,7.40
2019-03-23T23:43:53.232Z,7.40
2019-03-23T23:46:58.174Z,7.40
2019-03-23T23:50:03.084Z,7.50
2019-03-23T23:53:08.227Z,7.50
2019-03-23T23:56:13.752Z,7.40
2019-03-23T23:59:18.668Z,7.40
